sensor_id;sensor_type;location;lat;lon;timestamp;P1;durP1;ratioP1;P2;durP2;ratioP2
60336;SDS011;46978;50.288;28.624;2022-12-20T00:00:25;26.02;;;13.99;;
60336;SDS011;46978;50.288;28.624;2022-12-20T00:01:28;25.52;;;14.52;;
60336;SDS011;46978;50.288;28.624;2022-12-20T00:02:31;25.76;;;14.51;;
60336;SDS011;46978;50.288;28.624;2022-12-20T00:03:33;26.77;;;13.54;;
60336;SDS011;46978;50.288;28.624;2022-12-20T00:04:35;22.61;;;13.05;;
60336;SDS011;46978;50.288;28.624;2022-12-20T00:05:37;27.14;;;13.88;;
60336;SDS011;46978;50.288;28.624;2022-12-20T00:06:40;21.84;;;12.68;;
60336;SDS011;46978;50.288;28.624;2022-12-20T00:07:42;26.08;;;13.61;;
60336;SDS011;46978;50.288;28.624;2022-12-20T00:08:44;23.23;;;13.69;;
60336;SDS011;46978;50.288;28.624;2022-12-20T00:09:46;27.09;;;13.38;;
60336;SDS011;46978;50.288;28.624;2022-12-20T00:10:48;24.85;;;11.49;;
60336;SDS011;46978;50.288;28.624;2022-12-20T00:11:49;24.94;;;13.00;;
60336;SDS011;46978;50.288;28.624;2022-12-20T00:12:51;23.20;;;13.16;;
60336;SDS011;46978;50.288;28.624;2022-12-20T00:13:53;23.47;;;12.99;;
60336;SDS011;46978;50.288;28.624;2022-12-20T00:16:18;22.25;;;12.72;;
60336;SDS011;46978;50.288;28.624;2022-12-20T00:17:21;22.21;;;12.91;;
60336;SDS011;46978;50.288;28.624;2022-12-20T00:18:23;22.64;;;12.33;;
60336;SDS011;46978;50.288;28.624;2022-12-20T00:19:25;24.91;;;11.79;;
60336;SDS011;46978;50.288;28.624;2022-12-20T00:20:28;22.55;;;12.74;;
60336;SDS011;46978;50.288;28.624;2022-12-20T00:21:31;21.78;;;11.96;;
60336;SDS011;46978;50.288;28.624;2022-12-20T00:22:33;19.92;;;10.88;;
60336;SDS011;46978;50.288;28.624;2022-12-20T00:23:35;20.65;;;11.01;;
60336;SDS011;46978;50.288;28.624;2022-12-20T00:24:38;22.65;;;12.19;;
60336;SDS011;46978;50.288;28.624;2022-12-20T00:25:39;22.48;;;11.62;;
60336;SDS011;46978;50.288;28.624;2022-12-20T00:26:41;20.41;;;10.87;;
60336;SDS011;46978;50.288;28.624;2022-12-20T00:27:42;21.17;;;11.87;;
60336;SDS011;46978;50.288;28.624;2022-12-20T00:28:44;19.11;;;10.87;;
60336;SDS011;46978;50.288;28.624;2022-12-20T00:29:46;18.56;;;11.21;;
60336;SDS011;46978;50.288;28.624;2022-12-20T00:30:51;23.22;;;11.16;;
60336;SDS011;46978;50.288;28.624;2022-12-20T00:31:54;22.08;;;11.32;;
60336;SDS011;46978;50.288;28.624;2022-12-20T00:32:56;18.71;;;11.21;;
60336;SDS011;46978;50.288;28.624;2022-12-20T00:33:58;19.91;;;11.23;;
60336;SDS011;46978;50.288;28.624;2022-12-20T00:35:01;19.70;;;10.21;;
60336;SDS011;46978;50.288;28.624;2022-12-20T00:36:03;20.42;;;11.23;;
60336;SDS011;46978;50.288;28.624;2022-12-20T00:37:06;20.98;;;11.71;;
60336;SDS011;46978;50.288;28.624;2022-12-20T00:38:08;19.47;;;11.03;;
60336;SDS011;46978;50.288;28.624;2022-12-20T00:39:09;18.22;;;9.99;;
60336;SDS011;46978;50.288;28.624;2022-12-20T00:40:12;19.82;;;10.98;;
60336;SDS011;46978;50.288;28.624;2022-12-20T00:41:15;20.21;;;10.75;;
60336;SDS011;46978;50.288;28.624;2022-12-20T00:42:19;20.28;;;11.44;;
60336;SDS011;46978;50.288;28.624;2022-12-20T00:43:21;19.44;;;11.24;;
60336;SDS011;46978;50.288;28.624;2022-12-20T00:44:22;19.95;;;10.16;;
60336;SDS011;46978;50.288;28.624;2022-12-20T00:45:24;18.71;;;10.11;;
60336;SDS011;46978;50.288;28.624;2022-12-20T00:46:25;19.38;;;11.12;;
60336;SDS011;46978;50.288;28.624;2022-12-20T00:47:28;19.67;;;10.75;;
60336;SDS011;46978;50.288;28.624;2022-12-20T00:48:29;18.80;;;10.23;;
60336;SDS011;46978;50.288;28.624;2022-12-20T00:49:32;16.77;;;9.81;;
60336;SDS011;46978;50.288;28.624;2022-12-20T00:50:33;18.82;;;10.15;;
60336;SDS011;46978;50.288;28.624;2022-12-20T00:51:35;17.06;;;10.26;;
60336;SDS011;46978;50.288;28.624;2022-12-20T00:52:37;18.36;;;10.15;;
60336;SDS011;46978;50.288;28.624;2022-12-20T00:53:39;19.23;;;9.72;;
60336;SDS011;46978;50.288;28.624;2022-12-20T00:54:41;15.49;;;9.63;;
60336;SDS011;46978;50.288;28.624;2022-12-20T00:55:43;16.57;;;9.49;;
60336;SDS011;46978;50.288;28.624;2022-12-20T00:56:46;16.23;;;9.08;;
60336;SDS011;46978;50.288;28.624;2022-12-20T00:57:48;15.89;;;9.31;;
60336;SDS011;46978;50.288;28.624;2022-12-20T00:58:49;14.98;;;9.04;;
60336;SDS011;46978;50.288;28.624;2022-12-20T00:59:51;16.69;;;9.52;;
60336;SDS011;46978;50.288;28.624;2022-12-20T01:00:53;16.21;;;9.16;;
60336;SDS011;46978;50.288;28.624;2022-12-20T01:01:55;16.40;;;8.75;;
60336;SDS011;46978;50.288;28.624;2022-12-20T01:02:56;18.91;;;9.82;;
60336;SDS011;46978;50.288;28.624;2022-12-20T01:03:58;17.99;;;9.82;;
60336;SDS011;46978;50.288;28.624;2022-12-20T01:05:00;14.43;;;8.42;;
60336;SDS011;46978;50.288;28.624;2022-12-20T01:06:02;15.53;;;8.97;;
60336;SDS011;46978;50.288;28.624;2022-12-20T01:07:04;13.62;;;7.70;;
60336;SDS011;46978;50.288;28.624;2022-12-20T01:08:05;14.90;;;8.54;;
60336;SDS011;46978;50.288;28.624;2022-12-20T01:09:07;13.74;;;7.87;;
60336;SDS011;46978;50.288;28.624;2022-12-20T01:10:10;13.96;;;8.18;;
60336;SDS011;46978;50.288;28.624;2022-12-20T01:11:19;14.67;;;7.87;;
60336;SDS011;46978;50.288;28.624;2022-12-20T01:12:20;12.54;;;7.38;;
60336;SDS011;46978;50.288;28.624;2022-12-20T01:13:21;13.40;;;7.84;;
60336;SDS011;46978;50.288;28.624;2022-12-20T01:14:23;15.17;;;8.43;;
60336;SDS011;46978;50.288;28.624;2022-12-20T01:15:25;13.79;;;7.84;;
60336;SDS011;46978;50.288;28.624;2022-12-20T01:16:28;12.93;;;7.62;;
60336;SDS011;46978;50.288;28.624;2022-12-20T01:17:32;13.18;;;7.25;;
60336;SDS011;46978;50.288;28.624;2022-12-20T01:18:34;13.34;;;7.05;;
60336;SDS011;46978;50.288;28.624;2022-12-20T01:19:35;15.18;;;7.64;;
60336;SDS011;46978;50.288;28.624;2022-12-20T01:20:37;11.63;;;7.06;;
60336;SDS011;46978;50.288;28.624;2022-12-20T01:21:39;13.09;;;7.71;;
60336;SDS011;46978;50.288;28.624;2022-12-20T01:22:41;14.13;;;6.88;;
60336;SDS011;46978;50.288;28.624;2022-12-20T01:23:43;14.19;;;7.13;;
60336;SDS011;46978;50.288;28.624;2022-12-20T01:24:44;10.77;;;6.50;;
60336;SDS011;46978;50.288;28.624;2022-12-20T01:25:49;12.82;;;6.76;;
60336;SDS011;46978;50.288;28.624;2022-12-20T01:26:51;13.29;;;7.44;;
60336;SDS011;46978;50.288;28.624;2022-12-20T01:27:53;12.53;;;6.84;;
60336;SDS011;46978;50.288;28.624;2022-12-20T01:28:55;12.15;;;7.28;;
60336;SDS011;46978;50.288;28.624;2022-12-20T01:29:59;12.41;;;7.14;;
60336;SDS011;46978;50.288;28.624;2022-12-20T01:31:01;11.95;;;7.01;;
60336;SDS011;46978;50.288;28.624;2022-12-20T01:32:04;11.38;;;6.81;;
60336;SDS011;46978;50.288;28.624;2022-12-20T01:33:06;12.85;;;6.39;;
60336;SDS011;46978;50.288;28.624;2022-12-20T01:34:08;11.56;;;6.37;;
60336;SDS011;46978;50.288;28.624;2022-12-20T01:35:10;12.25;;;6.64;;
60336;SDS011;46978;50.288;28.624;2022-12-20T01:36:26;13.69;;;7.29;;
60336;SDS011;46978;50.288;28.624;2022-12-20T01:37:25;10.44;;;6.22;;
60336;SDS011;46978;50.288;28.624;2022-12-20T01:38:27;11.29;;;6.52;;
60336;SDS011;46978;50.288;28.624;2022-12-20T01:39:29;11.94;;;6.40;;
60336;SDS011;46978;50.288;28.624;2022-12-20T01:40:31;10.49;;;6.26;;
60336;SDS011;46978;50.288;28.624;2022-12-20T01:41:33;10.01;;;5.87;;
60336;SDS011;46978;50.288;28.624;2022-12-20T01:42:36;12.51;;;6.46;;
60336;SDS011;46978;50.288;28.624;2022-12-20T01:43:54;11.82;;;6.36;;
60336;SDS011;46978;50.288;28.624;2022-12-20T01:44:58;9.82;;;6.02;;
60336;SDS011;46978;50.288;28.624;2022-12-20T01:46:00;10.64;;;6.01;;
60336;SDS011;46978;50.288;28.624;2022-12-20T01:47:01;11.65;;;6.02;;
60336;SDS011;46978;50.288;28.624;2022-12-20T01:48:04;10.37;;;5.66;;
60336;SDS011;46978;50.288;28.624;2022-12-20T01:49:11;10.29;;;6.06;;
60336;SDS011;46978;50.288;28.624;2022-12-20T01:50:15;10.52;;;6.01;;
60336;SDS011;46978;50.288;28.624;2022-12-20T01:51:17;10.93;;;6.05;;
60336;SDS011;46978;50.288;28.624;2022-12-20T01:52:27;10.44;;;5.71;;
60336;SDS011;46978;50.288;28.624;2022-12-20T01:53:30;10.31;;;5.77;;
60336;SDS011;46978;50.288;28.624;2022-12-20T01:54:37;12.09;;;6.06;;
60336;SDS011;46978;50.288;28.624;2022-12-20T01:55:43;11.54;;;5.89;;
60336;SDS011;46978;50.288;28.624;2022-12-20T01:56:46;10.44;;;5.74;;
60336;SDS011;46978;50.288;28.624;2022-12-20T01:58:59;11.40;;;6.21;;
60336;SDS011;46978;50.288;28.624;2022-12-20T02:00:02;11.67;;;5.86;;
60336;SDS011;46978;50.288;28.624;2022-12-20T02:01:05;10.79;;;5.76;;
60336;SDS011;46978;50.288;28.624;2022-12-20T02:02:08;10.95;;;6.00;;
60336;SDS011;46978;50.288;28.624;2022-12-20T02:03:12;10.36;;;5.57;;
60336;SDS011;46978;50.288;28.624;2022-12-20T02:04:36;11.51;;;6.03;;
60336;SDS011;46978;50.288;28.624;2022-12-20T02:05:39;9.27;;;5.37;;
60336;SDS011;46978;50.288;28.624;2022-12-20T02:06:43;12.23;;;6.19;;
60336;SDS011;46978;50.288;28.624;2022-12-20T02:07:45;10.16;;;5.71;;
60336;SDS011;46978;50.288;28.624;2022-12-20T02:08:49;10.45;;;5.64;;
60336;SDS011;46978;50.288;28.624;2022-12-20T02:09:52;10.28;;;5.72;;
60336;SDS011;46978;50.288;28.624;2022-12-20T02:12:15;10.96;;;6.32;;
60336;SDS011;46978;50.288;28.624;2022-12-20T02:13:41;10.83;;;6.21;;
60336;SDS011;46978;50.288;28.624;2022-12-20T02:15:53;10.23;;;5.59;;
60336;SDS011;46978;50.288;28.624;2022-12-20T02:17:08;10.92;;;6.24;;
60336;SDS011;46978;50.288;28.624;2022-12-20T02:19:49;11.38;;;5.92;;
60336;SDS011;46978;50.288;28.624;2022-12-20T02:21:20;10.14;;;5.68;;
60336;SDS011;46978;50.288;28.624;2022-12-20T02:30:08;13.19;;;6.51;;
60336;SDS011;46978;50.288;28.624;2022-12-20T02:31:18;11.59;;;6.30;;
60336;SDS011;46978;50.288;28.624;2022-12-20T02:32:24;11.96;;;6.48;;
60336;SDS011;46978;50.288;28.624;2022-12-20T02:33:28;9.99;;;5.71;;
60336;SDS011;46978;50.288;28.624;2022-12-20T02:34:30;12.11;;;6.32;;
60336;SDS011;46978;50.288;28.624;2022-12-20T02:35:35;11.62;;;6.04;;
60336;SDS011;46978;50.288;28.624;2022-12-20T02:36:38;10.33;;;5.55;;
60336;SDS011;46978;50.288;28.624;2022-12-20T02:37:50;10.41;;;5.94;;
60336;SDS011;46978;50.288;28.624;2022-12-20T02:38:56;10.54;;;5.86;;
60336;SDS011;46978;50.288;28.624;2022-12-20T02:39:58;10.75;;;6.30;;
60336;SDS011;46978;50.288;28.624;2022-12-20T02:41:06;10.05;;;5.99;;
60336;SDS011;46978;50.288;28.624;2022-12-20T02:42:22;11.71;;;6.37;;
60336;SDS011;46978;50.288;28.624;2022-12-20T02:43:27;13.02;;;6.46;;
60336;SDS011;46978;50.288;28.624;2022-12-20T02:44:31;12.28;;;6.62;;
60336;SDS011;46978;50.288;28.624;2022-12-20T02:45:36;11.97;;;6.09;;
60336;SDS011;46978;50.288;28.624;2022-12-20T02:46:38;11.49;;;6.89;;
60336;SDS011;46978;50.288;28.624;2022-12-20T02:48:59;12.18;;;5.92;;
60336;SDS011;46978;50.288;28.624;2022-12-20T02:50:04;9.93;;;5.68;;
60336;SDS011;46978;50.288;28.624;2022-12-20T02:51:08;10.37;;;5.88;;
60336;SDS011;46978;50.288;28.624;2022-12-20T02:52:11;10.17;;;6.08;;
60336;SDS011;46978;50.288;28.624;2022-12-20T02:53:15;10.26;;;5.72;;
60336;SDS011;46978;50.288;28.624;2022-12-20T02:54:17;10.20;;;5.64;;
60336;SDS011;46978;50.288;28.624;2022-12-20T02:55:21;11.45;;;5.86;;
60336;SDS011;46978;50.288;28.624;2022-12-20T02:58:02;10.48;;;5.18;;
60336;SDS011;46978;50.288;28.624;2022-12-20T02:59:06;9.67;;;5.62;;
60336;SDS011;46978;50.288;28.624;2022-12-20T03:00:15;12.25;;;5.63;;
60336;SDS011;46978;50.288;28.624;2022-12-20T03:01:17;10.31;;;5.89;;
60336;SDS011;46978;50.288;28.624;2022-12-20T03:02:24;11.02;;;5.74;;
60336;SDS011;46978;50.288;28.624;2022-12-20T03:03:27;10.31;;;5.45;;
60336;SDS011;46978;50.288;28.624;2022-12-20T03:04:29;10.42;;;5.24;;
60336;SDS011;46978;50.288;28.624;2022-12-20T03:05:34;9.34;;;5.09;;
60336;SDS011;46978;50.288;28.624;2022-12-20T03:06:38;11.44;;;6.19;;
60336;SDS011;46978;50.288;28.624;2022-12-20T03:07:42;11.40;;;5.34;;
60336;SDS011;46978;50.288;28.624;2022-12-20T03:08:44;9.29;;;5.17;;
60336;SDS011;46978;50.288;28.624;2022-12-20T03:09:45;8.61;;;5.09;;
60336;SDS011;46978;50.288;28.624;2022-12-20T03:10:48;9.21;;;5.23;;
60336;SDS011;46978;50.288;28.624;2022-12-20T03:11:50;9.22;;;5.04;;
60336;SDS011;46978;50.288;28.624;2022-12-20T03:12:52;8.86;;;4.93;;
60336;SDS011;46978;50.288;28.624;2022-12-20T03:13:54;9.67;;;5.06;;
60336;SDS011;46978;50.288;28.624;2022-12-20T03:14:56;10.46;;;5.37;;
60336;SDS011;46978;50.288;28.624;2022-12-20T03:15:57;10.49;;;5.54;;
60336;SDS011;46978;50.288;28.624;2022-12-20T03:16:59;10.36;;;5.60;;
60336;SDS011;46978;50.288;28.624;2022-12-20T03:18:01;9.44;;;5.13;;
60336;SDS011;46978;50.288;28.624;2022-12-20T03:19:03;11.38;;;5.46;;
60336;SDS011;46978;50.288;28.624;2022-12-20T03:20:06;10.91;;;6.17;;
60336;SDS011;46978;50.288;28.624;2022-12-20T03:21:09;10.05;;;5.70;;
60336;SDS011;46978;50.288;28.624;2022-12-20T03:22:11;13.71;;;6.21;;
60336;SDS011;46978;50.288;28.624;2022-12-20T03:23:12;12.06;;;5.66;;
60336;SDS011;46978;50.288;28.624;2022-12-20T03:24:14;11.37;;;5.38;;
60336;SDS011;46978;50.288;28.624;2022-12-20T03:25:16;11.79;;;5.53;;
60336;SDS011;46978;50.288;28.624;2022-12-20T03:26:18;11.80;;;6.15;;
60336;SDS011;46978;50.288;28.624;2022-12-20T03:27:20;11.20;;;5.89;;
60336;SDS011;46978;50.288;28.624;2022-12-20T03:28:21;11.68;;;5.55;;
60336;SDS011;46978;50.288;28.624;2022-12-20T03:29:23;12.37;;;5.61;;
60336;SDS011;46978;50.288;28.624;2022-12-20T03:30:25;10.72;;;5.31;;
60336;SDS011;46978;50.288;28.624;2022-12-20T03:31:27;14.36;;;7.31;;
60336;SDS011;46978;50.288;28.624;2022-12-20T03:32:28;11.86;;;5.71;;
60336;SDS011;46978;50.288;28.624;2022-12-20T03:33:30;13.31;;;6.37;;
60336;SDS011;46978;50.288;28.624;2022-12-20T03:34:31;12.88;;;6.44;;
60336;SDS011;46978;50.288;28.624;2022-12-20T03:35:33;12.47;;;5.87;;
60336;SDS011;46978;50.288;28.624;2022-12-20T03:36:35;11.21;;;5.75;;
60336;SDS011;46978;50.288;28.624;2022-12-20T03:37:37;12.76;;;6.36;;
60336;SDS011;46978;50.288;28.624;2022-12-20T03:38:39;12.96;;;6.71;;
60336;SDS011;46978;50.288;28.624;2022-12-20T03:39:40;10.74;;;5.91;;
60336;SDS011;46978;50.288;28.624;2022-12-20T03:40:42;13.16;;;6.17;;
60336;SDS011;46978;50.288;28.624;2022-12-20T03:41:44;11.80;;;6.04;;
60336;SDS011;46978;50.288;28.624;2022-12-20T03:42:45;8.79;;;4.51;;
60336;SDS011;46978;50.288;28.624;2022-12-20T03:43:47;9.10;;;5.19;;
60336;SDS011;46978;50.288;28.624;2022-12-20T03:44:50;8.68;;;4.87;;
60336;SDS011;46978;50.288;28.624;2022-12-20T03:45:51;9.71;;;5.04;;
60336;SDS011;46978;50.288;28.624;2022-12-20T03:46:53;10.37;;;5.12;;
60336;SDS011;46978;50.288;28.624;2022-12-20T03:47:55;9.61;;;5.13;;
60336;SDS011;46978;50.288;28.624;2022-12-20T03:48:56;8.14;;;4.49;;
60336;SDS011;46978;50.288;28.624;2022-12-20T03:49:58;9.92;;;4.41;;
60336;SDS011;46978;50.288;28.624;2022-12-20T03:51:00;10.79;;;5.32;;
60336;SDS011;46978;50.288;28.624;2022-12-20T03:52:01;9.77;;;4.92;;
60336;SDS011;46978;50.288;28.624;2022-12-20T03:53:03;8.45;;;4.05;;
60336;SDS011;46978;50.288;28.624;2022-12-20T03:54:05;8.69;;;4.80;;
60336;SDS011;46978;50.288;28.624;2022-12-20T03:55:07;8.29;;;4.44;;
60336;SDS011;46978;50.288;28.624;2022-12-20T03:56:10;7.58;;;4.14;;
60336;SDS011;46978;50.288;28.624;2022-12-20T03:57:11;9.76;;;4.99;;
60336;SDS011;46978;50.288;28.624;2022-12-20T03:58:13;9.10;;;4.64;;
60336;SDS011;46978;50.288;28.624;2022-12-20T03:59:15;10.59;;;4.79;;
60336;SDS011;46978;50.288;28.624;2022-12-20T04:00:17;8.89;;;5.15;;
60336;SDS011;46978;50.288;28.624;2022-12-20T04:01:23;7.93;;;4.65;;
60336;SDS011;46978;50.288;28.624;2022-12-20T04:02:26;9.16;;;4.56;;
60336;SDS011;46978;50.288;28.624;2022-12-20T04:03:28;9.09;;;5.06;;
60336;SDS011;46978;50.288;28.624;2022-12-20T04:04:30;10.65;;;5.20;;
60336;SDS011;46978;50.288;28.624;2022-12-20T04:05:31;9.72;;;5.06;;
60336;SDS011;46978;50.288;28.624;2022-12-20T04:06:33;7.81;;;4.43;;
60336;SDS011;46978;50.288;28.624;2022-12-20T04:07:35;8.71;;;4.29;;
60336;SDS011;46978;50.288;28.624;2022-12-20T04:08:37;8.54;;;4.81;;
60336;SDS011;46978;50.288;28.624;2022-12-20T04:09:38;7.91;;;4.19;;
60336;SDS011;46978;50.288;28.624;2022-12-20T04:10:40;10.23;;;4.83;;
60336;SDS011;46978;50.288;28.624;2022-12-20T04:11:42;6.83;;;4.12;;
60336;SDS011;46978;50.288;28.624;2022-12-20T04:14:05;8.53;;;4.70;;
60336;SDS011;46978;50.288;28.624;2022-12-20T04:15:08;9.03;;;4.55;;
60336;SDS011;46978;50.288;28.624;2022-12-20T04:16:12;8.51;;;4.38;;
60336;SDS011;46978;50.288;28.624;2022-12-20T04:17:14;7.42;;;4.22;;
60336;SDS011;46978;50.288;28.624;2022-12-20T04:18:16;9.32;;;4.77;;
60336;SDS011;46978;50.288;28.624;2022-12-20T04:19:17;7.49;;;3.92;;
60336;SDS011;46978;50.288;28.624;2022-12-20T04:20:19;9.24;;;3.99;;
60336;SDS011;46978;50.288;28.624;2022-12-20T04:21:28;8.03;;;4.35;;
60336;SDS011;46978;50.288;28.624;2022-12-20T04:22:31;8.69;;;4.49;;
60336;SDS011;46978;50.288;28.624;2022-12-20T04:23:38;9.21;;;4.34;;
60336;SDS011;46978;50.288;28.624;2022-12-20T04:24:37;7.12;;;3.99;;
60336;SDS011;46978;50.288;28.624;2022-12-20T04:25:39;7.13;;;3.61;;
60336;SDS011;46978;50.288;28.624;2022-12-20T04:26:41;8.33;;;4.14;;
60336;SDS011;46978;50.288;28.624;2022-12-20T04:27:43;8.43;;;4.09;;
60336;SDS011;46978;50.288;28.624;2022-12-20T04:28:45;8.56;;;4.20;;
60336;SDS011;46978;50.288;28.624;2022-12-20T04:29:46;9.54;;;4.88;;
60336;SDS011;46978;50.288;28.624;2022-12-20T04:30:48;6.93;;;3.95;;
60336;SDS011;46978;50.288;28.624;2022-12-20T04:31:50;8.03;;;4.65;;
60336;SDS011;46978;50.288;28.624;2022-12-20T04:32:52;8.23;;;4.48;;
60336;SDS011;46978;50.288;28.624;2022-12-20T04:33:53;7.04;;;3.62;;
60336;SDS011;46978;50.288;28.624;2022-12-20T04:34:55;8.56;;;4.28;;
60336;SDS011;46978;50.288;28.624;2022-12-20T04:35:57;7.49;;;4.40;;
60336;SDS011;46978;50.288;28.624;2022-12-20T04:36:59;8.49;;;4.23;;
60336;SDS011;46978;50.288;28.624;2022-12-20T04:38:01;9.69;;;4.75;;
60336;SDS011;46978;50.288;28.624;2022-12-20T04:39:03;7.79;;;4.02;;
60336;SDS011;46978;50.288;28.624;2022-12-20T04:40:05;8.23;;;4.23;;
60336;SDS011;46978;50.288;28.624;2022-12-20T04:41:08;8.31;;;4.19;;
60336;SDS011;46978;50.288;28.624;2022-12-20T04:42:09;8.44;;;4.21;;
60336;SDS011;46978;50.288;28.624;2022-12-20T04:43:11;9.31;;;4.59;;
60336;SDS011;46978;50.288;28.624;2022-12-20T04:44:13;9.35;;;4.75;;
60336;SDS011;46978;50.288;28.624;2022-12-20T04:45:14;9.81;;;4.61;;
60336;SDS011;46978;50.288;28.624;2022-12-20T04:46:17;9.15;;;5.31;;
60336;SDS011;46978;50.288;28.624;2022-12-20T04:47:19;8.48;;;4.64;;
60336;SDS011;46978;50.288;28.624;2022-12-20T04:48:21;10.29;;;5.29;;
60336;SDS011;46978;50.288;28.624;2022-12-20T04:49:24;9.91;;;4.83;;
60336;SDS011;46978;50.288;28.624;2022-12-20T04:50:26;13.01;;;5.71;;
60336;SDS011;46978;50.288;28.624;2022-12-20T04:51:28;10.57;;;5.39;;
60336;SDS011;46978;50.288;28.624;2022-12-20T04:52:30;11.56;;;5.31;;
60336;SDS011;46978;50.288;28.624;2022-12-20T04:53:31;10.27;;;5.48;;
60336;SDS011;46978;50.288;28.624;2022-12-20T04:54:33;11.51;;;5.15;;
60336;SDS011;46978;50.288;28.624;2022-12-20T04:55:38;9.71;;;5.41;;
60336;SDS011;46978;50.288;28.624;2022-12-20T04:56:41;9.54;;;4.75;;
60336;SDS011;46978;50.288;28.624;2022-12-20T04:57:42;9.63;;;4.71;;
60336;SDS011;46978;50.288;28.624;2022-12-20T04:58:45;7.13;;;4.14;;
60336;SDS011;46978;50.288;28.624;2022-12-20T04:59:48;10.26;;;5.18;;
60336;SDS011;46978;50.288;28.624;2022-12-20T05:00:50;8.89;;;4.88;;
60336;SDS011;46978;50.288;28.624;2022-12-20T05:01:52;9.04;;;4.59;;
60336;SDS011;46978;50.288;28.624;2022-12-20T05:02:54;8.27;;;4.47;;
60336;SDS011;46978;50.288;28.624;2022-12-20T05:03:55;7.76;;;4.22;;
60336;SDS011;46978;50.288;28.624;2022-12-20T05:04:57;10.09;;;4.45;;
60336;SDS011;46978;50.288;28.624;2022-12-20T05:05:59;8.93;;;4.36;;
60336;SDS011;46978;50.288;28.624;2022-12-20T05:07:01;8.79;;;4.32;;
60336;SDS011;46978;50.288;28.624;2022-12-20T05:08:03;6.64;;;4.11;;
60336;SDS011;46978;50.288;28.624;2022-12-20T05:09:05;7.69;;;3.92;;
60336;SDS011;46978;50.288;28.624;2022-12-20T05:18:37;6.64;;;3.34;;
60336;SDS011;46978;50.288;28.624;2022-12-20T05:19:39;6.52;;;3.54;;
60336;SDS011;46978;50.288;28.624;2022-12-20T05:20:41;7.43;;;3.53;;
60336;SDS011;46978;50.288;28.624;2022-12-20T05:21:42;7.75;;;3.86;;
60336;SDS011;46978;50.288;28.624;2022-12-20T05:22:44;6.09;;;3.59;;
60336;SDS011;46978;50.288;28.624;2022-12-20T05:23:46;6.79;;;3.88;;
60336;SDS011;46978;50.288;28.624;2022-12-20T05:24:48;7.55;;;3.81;;
60336;SDS011;46978;50.288;28.624;2022-12-20T05:25:49;7.61;;;3.41;;
60336;SDS011;46978;50.288;28.624;2022-12-20T05:26:53;7.28;;;3.61;;
60336;SDS011;46978;50.288;28.624;2022-12-20T05:27:55;7.39;;;3.17;;
60336;SDS011;46978;50.288;28.624;2022-12-20T05:28:56;6.26;;;3.38;;
60336;SDS011;46978;50.288;28.624;2022-12-20T05:29:58;6.24;;;3.31;;
60336;SDS011;46978;50.288;28.624;2022-12-20T05:31:00;7.17;;;3.95;;
60336;SDS011;46978;50.288;28.624;2022-12-20T05:32:02;6.35;;;3.25;;
60336;SDS011;46978;50.288;28.624;2022-12-20T05:33:05;8.33;;;3.55;;
60336;SDS011;46978;50.288;28.624;2022-12-20T05:34:06;5.80;;;3.04;;
60336;SDS011;46978;50.288;28.624;2022-12-20T05:35:08;5.93;;;3.37;;
60336;SDS011;46978;50.288;28.624;2022-12-20T05:36:10;6.02;;;3.22;;
60336;SDS011;46978;50.288;28.624;2022-12-20T05:37:11;7.60;;;3.39;;
60336;SDS011;46978;50.288;28.624;2022-12-20T05:38:13;7.55;;;4.06;;
60336;SDS011;46978;50.288;28.624;2022-12-20T05:39:15;6.36;;;3.32;;
60336;SDS011;46978;50.288;28.624;2022-12-20T05:40:17;6.15;;;3.31;;
60336;SDS011;46978;50.288;28.624;2022-12-20T05:41:18;5.81;;;3.41;;
60336;SDS011;46978;50.288;28.624;2022-12-20T05:42:20;5.84;;;3.26;;
60336;SDS011;46978;50.288;28.624;2022-12-20T05:43:21;8.01;;;3.91;;
60336;SDS011;46978;50.288;28.624;2022-12-20T05:44:23;6.32;;;3.09;;
60336;SDS011;46978;50.288;28.624;2022-12-20T05:45:25;5.99;;;2.98;;
60336;SDS011;46978;50.288;28.624;2022-12-20T05:46:26;6.33;;;3.51;;
60336;SDS011;46978;50.288;28.624;2022-12-20T05:47:28;7.12;;;3.61;;
60336;SDS011;46978;50.288;28.624;2022-12-20T05:48:30;7.49;;;3.87;;
60336;SDS011;46978;50.288;28.624;2022-12-20T05:49:31;7.22;;;3.32;;
60336;SDS011;46978;50.288;28.624;2022-12-20T05:50:33;6.11;;;3.27;;
60336;SDS011;46978;50.288;28.624;2022-12-20T05:51:35;6.40;;;3.44;;
60336;SDS011;46978;50.288;28.624;2022-12-20T05:52:37;6.71;;;3.36;;
60336;SDS011;46978;50.288;28.624;2022-12-20T05:53:38;6.09;;;3.46;;
60336;SDS011;46978;50.288;28.624;2022-12-20T05:54:40;5.39;;;3.23;;
60336;SDS011;46978;50.288;28.624;2022-12-20T05:55:48;5.66;;;3.24;;
60336;SDS011;46978;50.288;28.624;2022-12-20T05:56:52;7.02;;;3.32;;
60336;SDS011;46978;50.288;28.624;2022-12-20T05:57:53;6.06;;;3.37;;
60336;SDS011;46978;50.288;28.624;2022-12-20T05:58:55;7.47;;;3.38;;
60336;SDS011;46978;50.288;28.624;2022-12-20T05:59:57;6.14;;;3.17;;
60336;SDS011;46978;50.288;28.624;2022-12-20T06:00:59;7.10;;;3.43;;
60336;SDS011;46978;50.288;28.624;2022-12-20T06:02:02;6.40;;;3.68;;
60336;SDS011;46978;50.288;28.624;2022-12-20T06:03:03;6.73;;;3.43;;
60336;SDS011;46978;50.288;28.624;2022-12-20T06:04:05;6.79;;;3.40;;
60336;SDS011;46978;50.288;28.624;2022-12-20T06:05:07;6.84;;;3.86;;
60336;SDS011;46978;50.288;28.624;2022-12-20T06:06:10;6.91;;;3.66;;
60336;SDS011;46978;50.288;28.624;2022-12-20T06:07:11;7.16;;;3.56;;
60336;SDS011;46978;50.288;28.624;2022-12-20T06:08:13;6.56;;;3.40;;
60336;SDS011;46978;50.288;28.624;2022-12-20T06:09:14;6.26;;;3.56;;
60336;SDS011;46978;50.288;28.624;2022-12-20T06:10:16;6.54;;;3.28;;
60336;SDS011;46978;50.288;28.624;2022-12-20T06:11:18;6.56;;;3.56;;
60336;SDS011;46978;50.288;28.624;2022-12-20T06:12:20;7.31;;;3.78;;
60336;SDS011;46978;50.288;28.624;2022-12-20T06:14:43;5.84;;;3.46;;
60336;SDS011;46978;50.288;28.624;2022-12-20T06:15:45;7.61;;;3.95;;
60336;SDS011;46978;50.288;28.624;2022-12-20T06:16:47;6.76;;;3.87;;
60336;SDS011;46978;50.288;28.624;2022-12-20T06:17:48;6.75;;;3.70;;
60336;SDS011;46978;50.288;28.624;2022-12-20T06:18:50;7.02;;;3.92;;
60336;SDS011;46978;50.288;28.624;2022-12-20T06:19:52;7.89;;;3.74;;
60336;SDS011;46978;50.288;28.624;2022-12-20T06:20:53;6.77;;;4.00;;
60336;SDS011;46978;50.288;28.624;2022-12-20T06:21:55;5.30;;;3.20;;
60336;SDS011;46978;50.288;28.624;2022-12-20T06:22:57;6.08;;;3.33;;
60336;SDS011;46978;50.288;28.624;2022-12-20T06:23:59;7.01;;;3.71;;
60336;SDS011;46978;50.288;28.624;2022-12-20T06:25:00;6.06;;;3.20;;
60336;SDS011;46978;50.288;28.624;2022-12-20T06:26:02;6.39;;;3.52;;
60336;SDS011;46978;50.288;28.624;2022-12-20T06:27:04;8.30;;;3.53;;
60336;SDS011;46978;50.288;28.624;2022-12-20T06:28:06;6.38;;;3.44;;
60336;SDS011;46978;50.288;28.624;2022-12-20T06:29:08;5.73;;;3.33;;
60336;SDS011;46978;50.288;28.624;2022-12-20T06:30:09;7.40;;;3.28;;
60336;SDS011;46978;50.288;28.624;2022-12-20T06:31:12;8.23;;;4.09;;
60336;SDS011;46978;50.288;28.624;2022-12-20T06:32:14;7.12;;;3.89;;
60336;SDS011;46978;50.288;28.624;2022-12-20T06:33:15;6.59;;;3.32;;
60336;SDS011;46978;50.288;28.624;2022-12-20T06:34:17;7.11;;;3.66;;
60336;SDS011;46978;50.288;28.624;2022-12-20T06:35:19;6.61;;;3.59;;
60336;SDS011;46978;50.288;28.624;2022-12-20T06:37:43;6.16;;;3.21;;
60336;SDS011;46978;50.288;28.624;2022-12-20T06:38:44;5.06;;;3.26;;